Time;durP1;ratioP1;P1;durP2;ratioP2;P2;SDS_P1;SDS_P2;PMS_P1;PMS_P2;Temp;Humidity;BMP_temperature;BMP_pressure;BME280_temperature;BME280_humidity;BME280_pressure;Samples;Min_cycle;Max_cycle;Signal;HPM_P1;HPM_P2
2023/01/13 00:01:42;;;;;;;44.80;24.30;;;;;;;3.84;100.00;97711.79;110605;1238;69401;-66
2023/01/13 00:04:12;;;;;;;43.70;22.90;;;;;;;3.83;100.00;97709.05;110627;1242;59679;-67
2023/01/13 00:06:41;;;;;;;46.00;26.10;;;;;;;3.82;100.00;97712.19;110649;1241;59678;-66
2023/01/13 00:09:10;;;;;;;41.00;24.20;;;;;;;3.81;100.00;97715.69;110554;1241;70255;-67
2023/01/13 00:11:39;;;;;;;42.70;26.10;;;;;;;3.79;100.00;97715.75;110532;1242;69787;-67
2023/01/13 00:14:08;;;;;;;41.90;24.00;;;;;;;3.79;100.00;97719.73;110251;1242;69774;-66
2023/01/13 00:16:37;;;;;;;42.10;24.10;;;;;;;3.79;100.00;97722.48;110573;1242;59760;-66
2023/01/13 00:19:06;;;;;;;39.90;21.50;;;;;;;3.79;100.00;97722.31;110648;1242;59646;-67
2023/01/13 00:21:36;;;;;;;44.40;24.00;;;;;;;3.79;100.00;97719.74;110572;1238;71384;-67
2023/01/13 00:24:05;;;;;;;47.00;26.20;;;;;;;3.78;100.00;97724.23;110673;1242;69779;-67
2023/01/13 00:26:35;;;;;;;55.30;26.40;;;;;;;3.77;100.00;97726.19;110518;1248;69632;-67
2023/01/13 00:29:04;;;;;;;67.30;28.60;;;;;;;3.75;100.00;97728.19;110523;1242;59667;-67
2023/01/13 00:31:33;;;;;;;76.90;28.90;;;;;;;3.72;100.00;97730.55;110391;1243;59677;-67
2023/01/13 00:34:02;;;;;;;62.80;26.90;;;;;;;3.70;100.00;97731.83;110635;1242;72014;-66
2023/01/13 00:36:31;;;;;;;52.50;27.90;;;;;;;3.67;100.00;97732.32;110626;1241;68438;-67
2023/01/13 00:39:02;;;;;;;;;;;;;;;3.65;100.00;97736.85;110617;1243;69354;-67
2023/01/13 00:43:21;;;;;;;53.80;27.80;;;;;;;3.62;100.00;97739.56;110620;1238;59751;-67
2023/01/13 00:44:21;;;;;;;59.20;27.30;;;;;;;3.61;100.00;97733.41;110550;1245;59708;-67
2023/01/13 00:46:51;;;;;;;58.70;29.90;;;;;;;3.59;100.00;97732.94;110575;1242;72289;-67
2023/01/13 00:49:21;;;;;;;53.10;26.20;;;;;;;3.60;100.00;97734.80;110585;1242;68731;-67
2023/01/13 00:51:50;;;;;;;53.40;28.80;;;;;;;3.61;100.00;97728.60;110558;1240;69257;-67
2023/01/13 00:54:20;;;;;;;60.20;29.60;;;;;;;3.62;100.00;97730.27;110486;1242;59687;-67
2023/01/13 00:56:50;;;;;;;52.40;25.50;;;;;;;3.62;100.00;97726.13;110558;1242;59716;-67
2023/01/13 00:59:20;;;;;;;55.00;28.10;;;;;;;3.62;100.00;97726.13;110628;1241;71888;-67
2023/01/13 01:01:50;;;;;;;;;;;;;;;3.62;100.00;97727.15;110552;1242;69137;-67
2023/01/13 01:04:20;;;;;;;57.40;27.20;;;;;;;3.60;100.00;97724.81;110589;1245;69152;-67
2023/01/13 01:06:49;;;;;;;44.80;23.00;;;;;;;3.59;100.00;97722.25;110439;1242;59740;-67
2023/01/13 01:09:18;;;;;;;53.70;27.80;;;;;;;3.60;100.00;97719.13;110416;1243;59747;-67
2023/01/13 01:11:48;;;;;;;47.20;25.60;;;;;;;3.60;100.00;97718.63;110338;1241;70748;-67
2023/01/13 01:14:19;;;;;;;50.70;25.20;;;;;;;3.57;100.00;97716.98;110343;1242;69792;-67
2023/01/13 01:16:48;;;;;;;48.90;25.00;;;;;;;3.55;100.00;97714.82;110339;1240;67685;-68
2023/01/13 01:19:18;;;;;;;44.80;24.40;;;;;;;3.57;100.00;97717.52;110377;1242;59683;-68
2023/01/13 01:21:49;;;;;;;40.30;23.60;;;;;;;3.58;100.00;97717.83;110335;1240;59621;-66
2023/01/13 01:24:19;;;;;;;42.20;22.80;;;;;;;3.57;100.00;97716.50;110409;1241;71336;-66
2023/01/13 01:26:48;;;;;;;37.80;20.90;;;;;;;3.57;100.00;97713.70;110356;1239;69225;-66
2023/01/13 01:29:18;;;;;;;42.20;22.80;;;;;;;3.58;100.00;97707.46;110369;1240;69537;-67
2023/01/13 01:31:47;;;;;;;40.40;23.00;;;;;;;3.58;100.00;97707.80;110264;1239;59725;-67
2023/01/13 01:34:18;;;;;;;37.10;20.40;;;;;;;3.56;100.00;97702.23;110445;1249;59682;-67
2023/01/13 01:36:48;;;;;;;36.70;20.70;;;;;;;3.57;100.00;97704.23;110431;1239;71323;-67
2023/01/13 01:39:18;;;;;;;35.00;20.70;;;;;;;3.57;100.00;97703.56;110382;1242;70179;-67
2023/01/13 01:44:42;;;;;;;34.50;19.10;;;;;;;3.59;100.00;97701.73;110371;1242;59744;-67
2023/01/13 01:47:17;;;;;;;31.90;18.40;;;;;;;3.62;100.00;97700.96;110308;1241;59640;-67
2023/01/13 01:49:47;;;;;;;35.90;20.50;;;;;;;3.63;100.00;97698.16;110382;1242;71252;-67
2023/01/13 01:52:25;;;;;;;32.00;19.20;;;;;;;3.64;100.00;97697.58;110419;1241;69194;-67
2023/01/13 01:55:09;;;;;;;29.30;18.20;;;;;;;3.67;100.00;97698.34;110321;1241;68469;-67
2023/01/13 01:57:49;;;;;;;28.60;18.30;;;;;;;3.68;100.00;97702.05;110324;1243;59655;-67
2023/01/13 02:00:20;;;;;;;28.80;18.40;;;;;;;3.69;100.00;97699.61;110390;1242;59678;-66
2023/01/13 02:02:52;;;;;;;29.80;17.90;;;;;;;3.69;100.00;97697.23;110447;1239;70424;-67
2023/01/13 02:05:23;;;;;;;30.30;17.60;;;;;;;3.69;100.00;97698.94;110347;1241;69215;-67
2023/01/13 02:07:55;;;;;;;34.10;20.60;;;;;;;3.70;100.00;97698.41;110385;1241;67572;-67
2023/01/13 02:10:29;;;;;;;30.20;19.30;;;;;;;3.67;100.00;97694.02;110655;1238;59678;-68
2023/01/13 02:13:02;;;;;;;30.30;18.40;;;;;;;3.64;100.00;97692.73;110295;1243;59712;-67
2023/01/13 02:15:43;;;;;;;34.00;18.40;;;;;;;3.62;100.00;97690.77;110582;1242;71369;-66
2023/01/13 02:18:15;;;;;;;30.40;19.20;;;;;;;3.61;100.00;97686.52;110497;1242;69764;-67
2023/01/13 02:20:51;;;;;;;27.70;17.70;;;;;;;3.60;100.00;97682.92;110649;1240;69725;-68
2023/01/13 02:26:57;;;;;;;33.10;19.60;;;;;;;3.62;100.00;97677.52;110659;1242;59669;-67
2023/01/13 02:33:06;;;;;;;93.60;25.40;;;;;;;3.58;100.00;97674.89;110623;1242;69235;-67
2023/01/13 02:35:39;;;;;;;;;;;;;;;3.54;100.00;97677.14;110559;1245;68538;-67
2023/01/13 02:38:12;;;;;;;36.40;18.90;;;;;;;3.52;100.00;97678.62;110274;1243;59698;-67
2023/01/13 02:40:55;;;;;;;160.10;27.80;;;;;;;3.50;100.00;97677.96;110641;1240;59702;-67
2023/01/13 02:46:32;;;;;;;32.40;19.20;;;;;;;3.47;100.00;97671.20;110621;1243;69219;-66
2023/01/13 02:49:06;;;;;;;30.20;17.70;;;;;;;3.48;100.00;97669.29;110627;1249;69227;-67
2023/01/13 02:51:39;;;;;;;34.60;19.70;;;;;;;3.49;100.00;97673.05;110140;1241;586075;-67
2023/01/13 02:54:17;;;;;;;33.40;19.40;;;;;;;3.49;100.00;97674.73;110613;1242;59671;-67
2023/01/13 02:56:52;;;;;;;37.30;19.70;;;;;;;3.50;100.00;97681.59;110618;1241;71661;-67
2023/01/13 02:59:25;;;;;;;36.40;21.50;;;;;;;3.51;100.00;97681.58;110534;1248;69410;-67
2023/01/13 03:01:56;;;;;;;45.10;24.00;;;;;;;3.52;100.00;97685.52;110623;1244;67432;-67
2023/01/13 03:04:49;;;;;;;38.00;22.00;;;;;;;3.51;100.00;97685.35;110557;1238;59742;-67
2023/01/13 03:07:46;;;;;;;35.20;20.10;;;;;;;3.51;100.00;97683.63;110617;1242;59679;-67
2023/01/13 03:10:16;;;;;;;32.90;19.30;;;;;;;3.51;100.00;97687.59;110647;1242;71413;-67
2023/01/13 03:12:46;;;;;;;38.30;21.00;;;;;;;3.52;100.00;97685.66;110562;1242;69283;-67
2023/01/13 03:15:43;;;;;;;59.80;24.10;;;;;;;3.53;100.00;97688.39;110618;1242;69307;-67
2023/01/13 03:18:24;;;;;;;40.40;21.40;;;;;;;3.51;100.00;97693.98;110194;1242;59740;-66
2023/01/13 03:21:12;;;;;;;29.10;17.50;;;;;;;3.50;100.00;97696.94;110577;1244;59680;-67
2023/01/13 03:23:45;;;;;;;33.70;18.90;;;;;;;3.52;100.00;97697.89;110557;1240;70658;-67
2023/01/13 03:26:36;;;;;;;29.70;18.10;;;;;;;3.54;100.00;97702.61;110568;1240;69582;-67
2023/01/13 03:29:27;;;;;;;40.90;23.60;;;;;;;3.56;100.00;97703.44;110504;1240;68759;-66
2023/01/13 03:32:06;;;;;;;40.40;22.10;;;;;;;3.53;100.00;97703.00;110580;1242;59737;-67
2023/01/13 03:34:49;;;;;;;39.10;22.10;;;;;;;3.54;100.00;97702.45;110600;1242;59743;-66
2023/01/13 03:37:24;;;;;;;38.70;21.30;;;;;;;3.53;100.00;97699.75;110616;1240;71956;-66
2023/01/13 03:40:01;;;;;;;31.90;19.70;;;;;;;3.54;100.00;97696.27;110570;1244;68570;-66
2023/01/13 03:42:35;;;;;;;31.00;18.10;;;;;;;3.54;100.00;97699.52;110559;1244;68698;-66
2023/01/13 03:45:16;;;;;;;31.50;20.00;;;;;;;3.55;100.00;97698.27;110625;1238;59721;-66
2023/01/13 03:47:56;;;;;;;29.20;16.60;;;;;;;3.57;100.00;97699.60;110661;1242;59634;-66
2023/01/13 03:50:40;;;;;;;31.90;20.00;;;;;;;3.57;100.00;97696.30;110600;1247;70619;-66
2023/01/13 03:53:16;;;;;;;32.90;18.70;;;;;;;3.58;100.00;97692.14;110601;1241;70022;-66
2023/01/13 03:56:01;;;;;;;30.40;18.30;;;;;;;3.57;100.00;97692.16;110555;1240;69267;-66
2023/01/13 03:58:40;;;;;;;31.50;19.30;;;;;;;3.58;100.00;97689.53;110583;1245;59682;-66
2023/01/13 04:01:15;;;;;;;33.60;18.10;;;;;;;3.60;100.00;97692.76;110589;1240;59683;-66
2023/01/13 04:04:02;;;;;;;42.50;23.00;;;;;;;3.61;100.00;97693.61;110574;1240;70817;-66
2023/01/13 04:06:40;;;;;;;33.80;19.80;;;;;;;3.59;100.00;97696.91;110580;1250;69063;-66
2023/01/13 04:09:29;;;;;;;38.30;21.20;;;;;;;3.59;100.00;97700.19;110574;1242;69139;-66
2023/01/13 04:12:24;;;;;;;34.20;20.90;;;;;;;3.59;100.00;97698.29;110588;1238;59705;-66
2023/01/13 04:14:55;;;;;;;38.90;22.50;;;;;;;3.59;100.00;97698.65;110633;1243;59665;-67
2023/01/13 04:17:24;;;;;;;33.70;19.90;;;;;;;3.60;100.00;97696.73;110614;1242;72003;-66
2023/01/13 04:19:53;;;;;;;40.00;22.10;;;;;;;3.61;100.00;97701.52;110644;1242;67382;-66
2023/01/13 04:22:24;;;;;;;29.60;16.70;;;;;;;3.62;100.00;97704.41;110598;1240;68831;-66
2023/01/13 04:24:53;;;;;;;26.50;15.10;;;;;;;3.64;100.00;97708.10;110607;1241;59686;-66
2023/01/13 04:27:22;;;;;;;29.50;16.60;;;;;;;3.63;100.00;97710.39;110628;1242;59672;-66
2023/01/13 04:29:52;;;;;;;29.70;17.20;;;;;;;3.64;100.00;97709.66;110651;1242;71217;-66
2023/01/13 04:32:22;;;;;;;30.70;17.70;;;;;;;3.66;100.00;97712.19;110636;1243;69278;-66
2023/01/13 04:34:52;;;;;;;27.70;16.50;;;;;;;3.67;100.00;97716.11;110565;1247;69851;-66
2023/01/13 04:37:21;;;;;;;29.00;16.50;;;;;;;3.66;100.00;97716.14;110598;1242;59751;-66
2023/01/13 04:39:51;;;;;;;30.90;18.40;;;;;;;3.64;100.00;97715.88;110643;1242;59630;-66
2023/01/13 04:42:21;;;;;;;32.10;20.60;;;;;;;3.62;100.00;97720.26;110622;1240;71492;-66
2023/01/13 04:44:50;;;;;;;33.10;17.80;;;;;;;3.62;100.00;97718.90;110546;1240;69249;-66
2023/01/13 04:47:19;;;;;;;38.30;21.70;;;;;;;3.63;100.00;97721.27;110550;1239;68748;-66
2023/01/13 04:49:49;;;;;;;36.40;22.00;;;;;;;3.62;100.00;97721.80;110644;1242;59750;-66
2023/01/13 04:52:19;;;;;;;40.00;22.50;;;;;;;3.63;100.00;97723.49;110636;1241;59721;-66
2023/01/13 04:54:48;;;;;;;39.80;22.00;;;;;;;3.64;100.00;97723.13;110585;1241;71945;-66
2023/01/13 04:57:17;;;;;;;44.70;24.90;;;;;;;3.62;100.00;97725.78;110602;1242;69140;-66
2023/01/13 04:59:46;;;;;;;42.90;24.60;;;;;;;3.60;100.00;97729.30;110609;1242;69773;-66
2023/01/13 05:02:18;;;;;;;38.00;21.10;;;;;;;3.57;100.00;97730.80;110497;1243;59680;-67
2023/01/13 05:04:48;;;;;;;38.20;22.70;;;;;;;3.56;100.00;97733.24;110590;1238;59697;-67
2023/01/13 05:07:17;;;;;;;38.00;21.40;;;;;;;3.58;100.00;97734.91;110619;1241;71927;-67
2023/01/13 05:09:46;;;;;;;49.50;24.40;;;;;;;3.56;100.00;97737.02;110475;1242;69920;-67
2023/01/13 05:17:51;;;;;;;45.30;23.40;;;;;;;3.53;100.00;97742.66;110622;1241;59737;-67
2023/01/13 05:20:21;;;;;;;39.60;23.20;;;;;;;3.53;100.00;97745.09;110604;1238;70609;-67
2023/01/13 05:25:40;;;;;;;37.50;21.90;;;;;;;3.48;100.00;97745.79;110610;1242;69457;-67
2023/01/13 05:28:13;;;;;;;31.10;17.40;;;;;;;3.47;100.00;97750.48;110601;1242;59746;-67
2023/01/13 05:30:44;;;;;;;35.50;21.60;;;;;;;3.47;100.00;97749.77;110621;1242;59627;-67
2023/01/13 05:33:16;;;;;;;32.20;19.60;;;;;;;3.44;100.00;97752.30;110612;1241;71881;-67
2023/01/13 05:35:46;;;;;;;34.00;20.70;;;;;;;3.43;100.00;97757.54;110613;1238;69929;-67
2023/01/13 05:38:16;;;;;;;36.10;20.50;;;;;;;3.43;100.00;97758.92;110609;1238;69871;-67
2023/01/13 05:43:33;;;;;;;31.20;18.10;;;;;;;3.44;100.00;97759.23;110631;1242;59737;-67
2023/01/13 05:46:06;;;;;;;34.40;20.80;;;;;;;3.42;100.00;97757.92;110644;1241;71519;-67
2023/01/13 05:48:38;;;;;;;30.50;18.80;;;;;;;3.41;100.00;97756.56;110382;1242;69124;-67
2023/01/13 05:51:10;;;;;;;38.10;21.70;;;;;;;3.41;100.00;97755.70;110485;1242;69051;-67
2023/01/13 05:53:39;;;;;;;35.90;21.70;;;;;;;3.41;100.00;97756.05;110427;1241;59747;-67
2023/01/13 05:56:09;;;;;;;35.00;21.60;;;;;;;3.41;100.00;97753.48;110551;1242;59733;-67
2023/01/13 05:58:38;;;;;;;;;;;;;;;3.39;100.00;97758.05;110309;1243;71770;-67
2023/01/13 06:01:08;;;;;;;38.00;23.30;;;;;;;3.37;100.00;97758.09;110634;1238;68571;-67
2023/01/13 06:03:37;;;;;;;33.70;21.50;;;;;;;3.39;100.00;97755.46;110633;1242;68497;-67
2023/01/13 06:06:07;;;;;;;50.40;28.50;;;;;;;3.39;100.00;97759.23;110606;1241;59672;-66
2023/01/13 06:08:36;;;;;;;44.10;25.10;;;;;;;3.39;100.00;97759.41;110621;1242;59729;-66
2023/01/13 06:11:07;;;;;;;42.00;24.10;;;;;;;3.40;100.00;97759.17;110442;1240;71956;-67
2023/01/13 06:13:36;;;;;;;35.90;22.20;;;;;;;3.41;100.00;97756.73;110280;1240;69124;-67
2023/01/13 06:16:06;;;;;;;;;;;;;;;3.41;100.00;97755.35;110441;1242;68325;-67
2023/01/13 06:18:35;;;;;;;36.70;20.20;;;;;;;3.41;100.00;97758.96;110528;1241;59658;-67
2023/01/13 06:21:04;;;;;;;39.40;21.70;;;;;;;3.42;100.00;97761.54;110404;1238;59737;-67
2023/01/13 06:23:37;;;;;;;34.50;18.80;;;;;;;3.43;100.00;97765.81;110647;1241;71376;-67
2023/01/13 06:26:16;;;;;;;40.20;24.10;;;;;;;3.45;100.00;97769.19;110631;1241;69845;-66
2023/01/13 06:28:45;;;;;;;42.00;24.60;;;;;;;3.45;100.00;97771.03;110611;1238;68585;-67
2023/01/13 06:31:15;;;;;;;50.30;25.40;;;;;;;3.47;100.00;97775.48;110330;1238;59671;-66
2023/01/13 06:33:49;;;;;;;49.20;25.30;;;;;;;3.47;100.00;97776.67;110612;1238;59701;-67
2023/01/13 06:36:23;;;;;;;57.60;28.40;;;;;;;3.48;100.00;97777.15;110590;1241;71337;-66
2023/01/13 06:38:57;;;;;;;59.10;33.50;;;;;;;3.49;100.00;97778.84;110620;1241;67793;-67
2023/01/13 06:44:19;;;;;;;41.40;24.40;;;;;;;3.51;100.00;97774.77;110621;1242;59736;-66
2023/01/13 06:46:48;;;;;;;40.80;24.90;;;;;;;3.52;100.00;97776.48;110615;1242;59689;-66
2023/01/13 06:49:17;;;;;;;40.10;22.90;;;;;;;3.52;100.00;97777.70;110640;1241;71287;-68
2023/01/13 06:51:49;;;;;;;39.90;23.30;;;;;;;3.51;100.00;97775.14;110570;1241;69201;-68
2023/01/13 06:54:18;;;;;;;44.60;26.60;;;;;;;3.51;100.00;97773.25;110450;1241;69064;-66
2023/01/13 06:56:46;;;;;;;41.30;24.60;;;;;;;3.52;100.00;97772.16;110528;1245;59737;-68
2023/01/13 06:59:15;;;;;;;44.00;26.50;;;;;;;3.53;100.00;97772.83;110576;1240;59675;-68
2023/01/13 07:01:44;;;;;;;45.80;25.90;;;;;;;3.54;100.00;97773.83;110546;1242;71342;-67
2023/01/13 07:04:13;;;;;;;47.70;28.50;;;;;;;3.55;100.00;97774.79;110383;1240;69199;-67
2023/01/13 07:06:42;;;;;;;44.80;27.90;;;;;;;3.59;100.00;97781.03;110527;1241;69920;-68
2023/01/13 07:09:11;;;;;;;41.10;26.30;;;;;;;3.62;100.00;97780.61;110612;1242;59744;-65
2023/01/13 07:11:51;;;;;;;46.40;27.90;;;;;;;3.65;100.00;97785.64;110399;1241;59675;-67
2023/01/13 07:17:10;;;;;;;40.20;23.90;;;;;;;3.73;100.00;97786.66;110684;1238;69814;-66
2023/01/13 07:19:39;;;;;;;42.00;25.00;;;;;;;3.78;100.00;97784.41;110419;1242;69882;-66
2023/01/13 07:22:07;;;;;;;43.30;25.70;;;;;;;3.79;100.00;97785.43;110601;1239;59747;-67
2023/01/13 07:24:37;;;;;;;46.30;25.00;;;;;;;3.79;100.00;97781.29;110599;1239;59675;-68
2023/01/13 07:27:06;;;;;;;42.30;23.50;;;;;;;3.78;100.00;97784.23;110655;1239;71139;-66
2023/01/13 07:29:36;;;;;;;50.30;25.20;;;;;;;3.78;100.00;97787.17;110654;1239;69800;-67
2023/01/13 07:32:06;;;;;;;;;;;;;;;3.80;100.00;97788.67;110515;1239;69730;-66
2023/01/13 07:34:35;;;;;;;44.50;24.00;;;;;;;3.79;100.00;97791.95;110459;1239;59761;-66
2023/01/13 07:37:04;;;;;;;41.40;23.30;;;;;;;3.77;100.00;97791.20;110505;1239;59668;-67
2023/01/13 07:39:33;;;;;;;41.90;22.70;;;;;;;3.77;100.00;97792.73;110666;1239;71259;-68
2023/01/13 07:44:49;;;;;;;39.70;24.40;;;;;;;3.80;100.00;97794.02;110623;1239;69252;-66
2023/01/13 07:47:22;;;;;;;38.80;22.40;;;;;;;3.80;100.00;97792.98;110532;1239;59821;-66
2023/01/13 07:49:51;;;;;;;48.60;27.60;;;;;;;3.81;100.00;97797.57;110663;1239;59626;-68
2023/01/13 07:52:20;;;;;;;43.90;23.20;;;;;;;3.82;100.00;97794.77;110657;1241;70772;-66
2023/01/13 07:54:49;;;;;;;47.00;25.20;;;;;;;3.85;100.00;97795.55;110601;1239;69985;-66
2023/01/13 07:57:18;;;;;;;46.10;24.90;;;;;;;3.86;100.00;97798.59;110378;1248;69873;-66
2023/01/13 07:59:47;;;;;;;51.20;27.80;;;;;;;3.89;100.00;97797.95;110538;1239;59683;-67
2023/01/13 08:02:16;;;;;;;47.20;24.70;;;;;;;3.91;100.00;97798.04;110498;1239;59662;-67
2023/01/13 08:04:46;;;;;;;52.10;27.20;;;;;;;3.91;100.00;97796.66;110586;1239;71309;-67
2023/01/13 08:07:15;;;;;;;52.30;27.10;;;;;;;3.94;100.00;97799.66;110556;1239;69179;-67
2023/01/13 08:09:44;;;;;;;55.30;28.50;;;;;;;3.95;100.00;97798.08;110630;1238;69372;-66
2023/01/13 08:15:01;;;;;;;47.40;26.10;;;;;;;4.02;100.00;97798.80;110600;1239;59630;-66
2023/01/13 08:17:32;;;;;;;47.10;24.60;;;;;;;4.09;100.00;97804.56;110522;1244;72412;-65
2023/01/13 08:20:02;;;;;;;49.00;24.40;;;;;;;4.16;100.00;97805.51;110666;1238;69218;-68
2023/01/13 08:22:32;;;;;;;39.80;20.10;;;;;;;4.22;100.00;97802.32;110572;1240;68299;-66
2023/01/13 08:25:01;;;;;;;49.30;24.90;;;;;;;4.30;100.00;97797.33;110667;1239;59672;-66
2023/01/13 08:27:29;;;;;;;45.50;20.30;;;;;;;4.37;100.00;97796.85;110681;1239;59726;-67
2023/01/13 08:29:58;;;;;;;42.00;21.70;;;;;;;4.50;100.00;97797.01;110638;1239;71934;-67
2023/01/13 08:32:27;;;;;;;44.10;22.30;;;;;;;4.60;100.00;97792.25;110588;1238;69212;-68
2023/01/13 08:34:56;;;;;;;37.60;19.20;;;;;;;4.68;100.00;97792.64;110661;1239;69197;-66
2023/01/13 08:37:25;;;;;;;42.40;22.40;;;;;;;4.72;100.00;97795.20;110655;1248;60045;-67
2023/01/13 08:39:54;;;;;;;37.80;18.70;;;;;;;4.75;100.00;97794.92;110620;1239;59671;-68
2023/01/13 08:42:23;;;;;;;39.80;19.50;;;;;;;4.80;100.00;97792.24;110657;1241;71928;-67
2023/01/13 08:44:56;;;;;;;34.00;17.60;;;;;;;4.86;100.00;97792.52;110523;1239;69630;-66
2023/01/13 08:47:28;;;;;;;28.90;15.20;;;;;;;4.92;100.00;97795.35;110667;1239;68092;-66
2023/01/13 08:49:57;;;;;;;32.70;18.30;;;;;;;4.96;100.00;97798.13;110488;1243;59766;-65
2023/01/13 08:52:25;;;;;;;33.20;17.80;;;;;;;4.98;100.00;97790.63;110657;1246;59647;-65
2023/01/13 08:54:55;;;;;;;35.70;18.70;;;;;;;5.03;100.00;97790.38;110580;1239;71610;-66
2023/01/13 08:57:23;;;;;;;30.20;17.30;;;;;;;5.09;100.00;97788.90;110706;1238;69601;-66
2023/01/13 08:59:52;;;;;;;34.80;18.20;;;;;;;5.12;100.00;97789.31;110661;1244;69879;-66
2023/01/13 09:02:22;;;;;;;30.40;17.30;;;;;;;5.15;100.00;97791.59;110655;1238;59750;-66
2023/01/13 09:04:51;;;;;;;23.50;13.20;;;;;;;5.20;100.00;97791.17;110683;1239;59621;-65
2023/01/13 09:07:20;;;;;;;25.50;14.90;;;;;;;5.21;100.00;97792.68;110668;1238;71171;-65
2023/01/13 09:09:50;;;;;;;31.40;16.70;;;;;;;5.20;100.00;97791.16;110704;1238;69100;-65
2023/01/13 09:15:13;;;;;;;25.50;14.90;;;;;;;5.32;100.00;97791.17;110664;1238;59738;-66
2023/01/13 09:17:41;;;;;;;28.30;15.90;;;;;;;5.35;100.00;97786.34;110682;1239;59673;-65
2023/01/13 09:20:11;;;;;;;28.30;16.60;;;;;;;5.35;100.00;97785.83;110659;1239;70371;-66
2023/01/13 09:22:40;;;;;;;31.10;17.40;;;;;;;5.35;100.00;97782.73;110582;1238;68049;-65
2023/01/13 09:25:11;;;;;;;27.40;15.50;;;;;;;5.33;100.00;97782.46;110664;1241;69813;-65
2023/01/13 09:27:39;;;;;;;;;;;;;;;5.32;100.00;97778.56;110680;1239;59767;-66
2023/01/13 09:30:09;;;;;;;33.10;17.40;;;;;;;5.34;100.00;97778.28;110666;1240;59707;-66
2023/01/13 09:32:38;;;;;;;28.10;15.20;;;;;;;5.30;100.00;97776.55;110655;1239;72056;-66
2023/01/13 09:35:08;;;;;;;29.80;16.10;;;;;;;5.26;100.00;97776.38;110669;1238;68712;-65
2023/01/13 09:37:39;;;;;;;27.90;15.20;;;;;;;5.21;100.00;97773.85;110653;1245;69668;-65
2023/01/13 09:40:16;;;;;;;28.30;16.40;;;;;;;5.16;100.00;97770.66;110652;1239;59670;-65
2023/01/13 09:45:59;;;;;;;26.10;16.20;;;;;;;5.11;100.00;97762.03;110691;1238;71422;-65
2023/01/13 09:48:50;;;;;;;37.10;18.40;;;;;;;5.15;100.00;97759.45;110670;1239;69696;-65
2023/01/13 09:51:29;;;;;;;31.40;16.80;;;;;;;5.17;100.00;97756.95;110686;1237;68504;-67
2023/01/13 09:54:10;;;;;;;26.90;15.30;;;;;;;5.21;100.00;97755.90;110611;1239;59687;-65
2023/01/13 09:56:38;;;;;;;27.70;16.00;;;;;;;5.24;100.00;97752.50;110689;1246;59662;-65
2023/01/13 09:59:11;;;;;;;25.80;15.30;;;;;;;5.24;100.00;97749.53;110640;1239;71987;-65
2023/01/13 10:01:51;;;;;;;24.10;13.70;;;;;;;5.25;100.00;97747.93;110690;1239;68173;-65
2023/01/13 10:04:20;;;;;;;28.30;16.10;;;;;;;5.29;100.00;97750.66;110686;1239;69088;-65
2023/01/13 10:06:55;;;;;;;28.60;15.60;;;;;;;5.33;100.00;97751.34;110641;1237;59688;-65
2023/01/13 10:09:46;;;;;;;25.80;14.20;;;;;;;5.37;100.00;97752.05;110618;1239;59676;-66
2023/01/13 10:15:21;;;;;;;26.30;15.50;;;;;;;5.53;100.00;97755.23;110694;1239;69188;-65
2023/01/13 10:17:57;;;;;;;26.20;15.70;;;;;;;5.55;100.00;97755.53;110625;1239;69054;-65
2023/01/13 10:20:51;;;;;;;27.50;17.70;;;;;;;5.53;100.00;97756.30;110664;1240;60045;-64
2023/01/13 10:23:26;;;;;;;24.60;14.80;;;;;;;5.41;100.00;97755.82;110632;1239;59669;-65
2023/01/13 10:26:00;;;;;;;28.10;15.70;;;;;;;5.38;99.96;97754.42;110689;1239;71921;-64
2023/01/13 10:28:29;;;;;;;23.70;14.40;;;;;;;5.35;100.00;97755.25;110708;1239;68317;-65
2023/01/13 10:30:58;;;;;;;27.20;16.30;;;;;;;5.32;100.00;97754.36;110547;1237;69094;-64
2023/01/13 10:33:27;;;;;;;62.40;36.80;;;;;;;5.30;100.00;97754.41;110579;1240;59743;-65
2023/01/13 10:36:00;;;;;;;81.10;37.30;;;;;;;5.30;100.00;97750.80;110673;1239;59727;-65
2023/01/13 10:38:36;;;;;;;25.50;15.10;;;;;;;5.28;99.98;97745.21;110631;1237;71937;-64
2023/01/13 10:41:18;;;;;;;25.30;15.40;;;;;;;5.25;99.90;97745.18;110432;1239;68396;-64
2023/01/13 10:43:50;;;;;;;59.40;31.60;;;;;;;5.26;100.00;97743.05;110618;1245;69840;-64
2023/01/13 10:46:22;;;;;;;41.10;22.60;;;;;;;5.29;100.00;97744.13;110678;1239;59700;-65
2023/01/13 10:49:22;;;;;;;28.10;16.90;;;;;;;5.32;100.00;97743.97;110534;1238;59730;-65
2023/01/13 10:51:51;;;;;;;23.10;14.50;;;;;;;5.36;99.98;97746.73;110640;1239;71371;-65
2023/01/13 10:54:22;;;;;;;20.60;13.20;;;;;;;5.46;100.00;97742.98;110628;1238;68725;-66
2023/01/13 10:57:19;;;;;;;26.50;13.60;;;;;;;5.55;100.00;97739.98;110691;1238;69674;-67
2023/01/13 10:59:48;;;;;;;18.50;11.70;;;;;;;5.63;99.24;97741.29;110648;1237;59802;-65
2023/01/13 11:02:23;;;;;;;18.10;10.60;;;;;;;5.72;99.70;97738.48;110603;1239;59731;-65
2023/01/13 11:04:54;;;;;;;17.10;10.90;;;;;;;5.78;99.80;97736.45;110583;1239;71988;-65
2023/01/13 11:07:36;;;;;;;17.70;10.80;;;;;;;5.83;99.57;97734.48;110692;1239;69723;-66
2023/01/13 11:10:15;;;;;;;18.80;10.80;;;;;;;5.85;98.56;97732.80;110674;1241;69926;-65
2023/01/13 11:13:03;;;;;;;16.90;11.50;;;;;;;5.89;97.34;97730.89;110668;1238;59686;-65
2023/01/13 11:16:06;;;;;;;19.20;12.00;;;;;;;5.95;98.49;97731.31;110708;1238;59612;-65
2023/01/13 11:19:01;;;;;;;17.80;11.80;;;;;;;5.96;97.16;97727.83;110530;1239;71794;-65
2023/01/13 11:22:06;;;;;;;17.30;11.20;;;;;;;5.96;95.89;97732.67;110588;1239;70089;-65
2023/01/13 11:24:46;;;;;;;21.60;13.40;;;;;;;5.97;96.82;97731.58;110200;1241;69069;-65
2023/01/13 11:27:41;;;;;;;20.70;13.60;;;;;;;5.93;96.07;97732.80;110578;1239;59729;-65
2023/01/13 11:30:16;;;;;;;20.90;12.90;;;;;;;5.89;96.96;97724.48;110652;1239;59652;-65
2023/01/13 11:33:09;;;;;;;16.70;10.80;;;;;;;5.88;96.88;97717.98;110672;1245;71263;-65
2023/01/13 11:36:03;;;;;;;19.00;12.20;;;;;;;5.89;96.35;97713.92;110718;1238;69652;-66
2023/01/13 11:38:41;;;;;;;19.40;12.80;;;;;;;5.88;95.22;97710.90;110671;1244;69049;-65
2023/01/13 11:41:42;;;;;;;18.20;11.40;;;;;;;5.87;93.52;97709.17;110676;1239;60055;-66
2023/01/13 11:44:24;;;;;;;16.60;11.10;;;;;;;5.96;93.95;97703.23;110709;1239;60113;-65
2023/01/13 11:46:55;;;;;;;20.00;11.70;;;;;;;6.01;92.45;97699.33;110655;1239;72161;-66
2023/01/13 11:49:29;;;;;;;18.90;11.20;;;;;;;6.07;92.44;97698.86;110680;1237;69972;-66
2023/01/13 11:52:41;;;;;;;15.40;9.90;;;;;;;6.13;91.73;97696.17;110650;1246;69208;-66
2023/01/13 11:55:48;;;;;;;20.50;12.10;;;;;;;6.25;92.54;97696.08;110568;1239;59706;-65
2023/01/13 11:58:30;;;;;;;16.70;11.00;;;;;;;6.32;92.09;97696.23;110680;1239;59675;-65
2023/01/13 12:01:43;;;;;;;17.10;10.70;;;;;;;6.34;92.18;97691.45;110517;1239;70595;-65
2023/01/13 12:04:24;;;;;;;16.60;10.20;;;;;;;6.40;91.65;97685.63;110547;1238;69171;-66
2023/01/13 12:07:21;;;;;;;17.30;11.60;;;;;;;6.47;92.08;97686.80;110629;1237;69271;-65
2023/01/13 12:10:13;;;;;;;17.70;10.80;;;;;;;6.48;89.64;97686.27;110614;1239;59740;-65
2023/01/13 12:13:00;;;;;;;17.10;11.80;;;;;;;6.52;91.39;97685.48;110665;1239;59674;-65
2023/01/13 12:15:59;;;;;;;19.80;13.10;;;;;;;6.50;91.15;97687.17;110716;1239;71933;-66
2023/01/13 12:18:33;;;;;;;16.30;11.30;;;;;;;6.49;91.87;97686.54;110675;1237;67873;-65
2023/01/13 12:21:02;;;;;;;15.30;10.50;;;;;;;6.49;91.15;97688.41;110530;1237;68132;-66
2023/01/13 12:23:43;;;;;;;16.50;10.70;;;;;;;6.48;90.40;97685.91;110380;1241;59661;-66
2023/01/13 12:26:17;;;;;;;13.90;10.40;;;;;;;6.38;89.32;97684.34;110682;1239;59684;-66
2023/01/13 12:28:48;;;;;;;14.80;10.10;;;;;;;6.35;89.84;97684.15;110581;1239;70814;-66